Monday, January 21, 2019, 5:09 PM EST
Back to Local

KVAY, Mt Holly South Jersey Rgnl

Location: Medford, NJ, United States Lat: 39.933
Local Time: 5:09 PM EST (22:09 GMT) Lon: -74.833
Time Zone: US/Eastern Elev: 52 ft

Show me the last for .
Show Coded

Time T Td Feel RH Dir Speed Gust Alt SLP Vis Weather Sky Remarks
2019-01-21 16:54 17 -9 -1 29 310° 13 24 30.27 30.27 10 CLR Peak wind: 34 mph (30 kts) from 310° at 31 min
2019-01-21 15:54 18 -9 -1 28 290° 15 30 30.23 30.23 10 CLR Peak wind: 32 mph (28 kts) from 310° at 28 min
2019-01-21 14:54 17 -10 -4 28 290° 16 36 30.22 30.22 10 CLR Peak wind: 35 mph (31 kts) from 320° at 49 min
2019-01-21 13:54 17 -7 -3 32 300° 20 31 30.20 30.20 10 CLR Peak wind: 35 mph (31 kts) from 290° at 34 min
2019-01-21 12:54 15 -8 -6 34 290° 20 31 30.20 30.20 10 CLR Peak wind: 36 mph (32 kts) from 310° at 34 min
6-hr Min Temp (1pm): 9.0°F
6-hr Max Temp (1pm): 16.0°F
2019-01-21 11:54 14 -8 -8 36 300° 17 35 30.18 30.19 10 CLR Peak wind: 34 mph (30 kts) from 290° at 47 min
2019-01-21 10:54 13 -8 -9 37 300° 15 33 30.18 30.19 10 CLR Peak wind: 36 mph (32 kts) from 320° at 35 min
2019-01-21 09:54 11 -9 -12 39 300° 18 33 30.16 30.16 10 SCT049 SCT090 Peak wind: 35 mph (31 kts) from 320° at 39 min
2019-01-21 08:54 10 -9 -14 40 310° 15 36 30.11 30.11 10 FEW048 Peak wind: 35 mph (31 kts) from 290° at 18 min
2019-01-21 07:54 9 -8 -14 45 310° 22 31 30.08 30.08 10 CLR Peak wind: 35 mph (31 kts) from 270° at 30 min
2019-01-21 06:54 9 -8 -11 45 290° 12 22 30.04 30.04 10 CLR Peak wind: 37 mph (33 kts) from 300° at 36 min
24-hr Precip Total (7am): 0.12"
6-hr Min Temp (7am): 9.0°F
6-hr Max Temp (7am): 15.1°F
2019-01-21 05:54 10 -8 -11 42 280° 14 25 30.02 30.02 10 CLR Peak wind: 29 mph (26 kts) from 320° at 24 min
2019-01-21 04:54 10 -8 -12 42 310° 14 28 30.00 30.00 10 CLR Peak wind: 32 mph (28 kts) from 310° at 43 min
2019-01-21 03:54 11 -5 -8 47 290° 12 22 29.97 29.97 10 CLR Peak wind: 33 mph (29 kts) from 290° at 01 min
2019-01-21 02:54 13 -3 -5 48 290° 10 21 29.95 29.95 10 FEW043 Peak wind: 35 mph (31 kts) from 320° at 59 min
2019-01-21 01:54 14 -3 -8 46 300° 15 35 29.93 29.93 10 CLR Peak wind: 34 mph (30 kts) from 300° at 51 min
2019-01-21 00:54 16 -1 -4 46 310° 16 28 29.90 29.90 10 SCT041 6-hr Min Temp (1am): 16.0°F
6-hr Max Temp (1am): 21.9°F
2019-01-20 23:54 16 -1 -4 46 310° 18 31 29.87 29.87 10 CLR Peak wind: 33 mph (29 kts) from 320° at 14 min
24-hr Min Temp (12am): 16.0°F
24-hr Max Temp (12am): 55.0°F
2019-01-20 22:54 17 1 -3 48 320° 16 32 29.84 29.84 10 FEW039 Peak wind: 32 mph (28 kts) from 280° at 25 min
2019-01-20 21:54 20 6 1 54 290° 16 32 29.78 29.78 10 OVC037 Peak wind: 32 mph (28 kts) from 280° at 52 min
2019-01-20 20:54 20 7 2 56 330° 13 29 29.76 29.76 10 OVC036 Peak wind: 31 mph (27 kts) from 330° at 44 min
2019-01-20 19:54 21 7 1 53 330° 21 37 29.73 29.73 10 BKN037 Peak wind: 36 mph (32 kts) from 310° at 47 min
2019-01-20 18:54 22 10 5 59 330° 17 28 29.70 29.70 10 FEW035 6-hr Min Temp (7pm): 21.9°F
6-hr Max Temp (7pm): 42.1°F
2019-01-20 17:54 24 11 7 56 310° 22 31 29.65 29.65 10 CLR Peak wind: 37 mph (33 kts) from 320° at 18 min

Support USWX by starting your Amazon purchase here.